Time;durP1;ratioP1;P1;durP2;ratioP2;P2;SDS_P1;SDS_P2;PMS_P1;PMS_P2;Temp;Humidity;BMP_temperature;BMP_pressure;BME280_temperature;BME280_humidity;BME280_pressure;Samples;Min_cycle;Max_cycle;Signal;HPM_P1;HPM_P2
2022/03/27 00:00:39;;;;;;;0.00;0.00;;;7.20;99.90;;;;;;5044071;28;20084;-65
2022/03/27 00:03:06;;;;;;;0.00;0.00;;;7.20;99.90;;;;;;5033651;28;20053;-65
2022/03/27 00:05:32;;;;;;;0.00;0.00;;;7.30;99.90;;;;;;5043949;28;20037;-64
2022/03/27 00:07:57;;;;;;;0.00;0.00;;;7.40;99.90;;;;;;5043246;28;20067;-65
2022/03/27 00:10:23;;;;;;;0.00;0.00;;;7.40;99.90;;;;;;5042617;28;20037;-65
2022/03/27 00:12:49;;;;;;;0.00;0.00;;;7.40;99.90;;;;;;5043353;28;20648;-65
2022/03/27 00:15:14;;;;;;;0.00;0.00;;;7.50;99.90;;;;;;5026398;28;20107;-64
2022/03/27 00:17:40;;;;;;;0.00;0.00;;;7.50;99.90;;;;;;5024951;28;20045;-65
2022/03/27 00:20:09;;;;;;;0.00;0.00;;;7.50;99.90;;;;;;5043635;28;20194;-66
2022/03/27 00:22:39;;;;;;;0.00;0.00;;;7.50;99.90;;;;;;5043301;28;20048;-65
2022/03/27 00:25:07;;;;;;;0.00;0.00;;;7.50;99.90;;;;;;5042950;28;20454;-65
2022/03/27 00:27:34;;;;;;;0.00;0.00;;;7.50;99.90;;;;;;5043995;28;20045;-65
2022/03/27 00:30:00;;;;;;;0.00;0.00;;;7.50;99.90;;;;;;5043056;28;20041;-65
2022/03/27 00:32:26;;;;;;;0.00;0.00;;;7.50;99.90;;;;;;5043280;28;20560;-65
2022/03/27 00:34:53;;;;;;;0.00;0.00;;;8.20;99.90;;;;;;5042669;28;20132;-65
2022/03/27 00:37:19;;;;;;;0.00;0.00;;;7.50;99.90;;;;;;5043184;28;20045;-65
2022/03/27 00:39:44;;;;;;;0.00;0.00;;;7.50;99.90;;;;;;5042030;28;20095;-65
2022/03/27 00:42:10;;;;;;;0.00;0.00;;;7.50;99.90;;;;;;5025530;28;20047;-65
2022/03/27 00:44:36;;;;;;;0.00;0.00;;;7.40;99.90;;;;;;5042480;28;20595;-65
2022/03/27 00:47:02;;;;;;;0.00;0.00;;;7.50;99.90;;;;;;5025369;28;20071;-65
2022/03/27 00:49:28;;;;;;;0.00;0.00;;;7.40;99.90;;;;;;5043198;28;20037;-65
2022/03/27 00:51:54;;;;;;;0.00;0.00;;;7.50;99.90;;;;;;5042226;28;20505;-65
2022/03/27 00:54:20;;;;;;;0.00;0.00;;;7.50;99.90;;;;;;5042259;28;20428;-65
2022/03/27 00:56:46;;;;;;;0.00;0.00;;;7.50;99.90;;;;;;5042262;28;20124;-65
2022/03/27 00:59:13;;;;;;;0.00;0.00;;;7.50;99.90;;;;;;5042883;28;20183;-65
2022/03/27 01:01:40;;;;;;;0.00;0.00;;;8.10;99.90;;;;;;5046131;28;20048;-65
2022/03/27 01:04:07;;;;;;;0.00;0.00;;;7.50;99.90;;;;;;5049961;28;20056;-65
2022/03/27 01:06:41;;;;;;;0.00;0.00;;;8.20;99.90;;;;;;5042744;28;20092;-65
2022/03/27 01:11:54;;;;;;;0.00;0.00;;;7.60;99.90;;;;;;5041990;28;20566;-65
2022/03/27 01:14:31;;;;;;;0.00;0.00;;;7.60;99.90;;;;;;5042060;28;20047;-65
2022/03/27 01:17:08;;;;;;;0.00;0.00;;;7.50;99.90;;;;;;5042110;28;20506;-65
2022/03/27 01:19:34;;;;;;;0.00;0.00;;;7.50;99.90;;;;;;5025341;28;20140;-65
2022/03/27 01:22:01;;;;;;;0.00;0.00;;;7.40;99.90;;;;;;5041938;28;20116;-64
2022/03/27 01:24:27;;;;;;;0.00;0.00;;;7.40;99.90;;;;;;5041781;28;20565;-64
2022/03/27 01:26:52;;;;;;;0.00;0.00;;;7.30;99.90;;;;;;5041924;28;20444;-64
2022/03/27 01:29:18;;;;;;;0.00;0.00;;;7.20;99.90;;;;;;5024087;28;20045;-64
2022/03/27 01:31:46;;;;;;;0.00;0.00;;;7.10;99.90;;;;;;5041893;28;20076;-64
2022/03/27 01:34:12;;;;;;;0.00;0.00;;;7.00;99.90;;;;;;5042161;28;20446;-65
2022/03/27 01:36:37;;;;;;;0.00;0.00;;;6.90;99.90;;;;;;5042151;28;20049;-63
2022/03/27 01:39:06;;;;;;;0.00;0.00;;;6.90;99.90;;;;;;5023587;28;20048;-63
2022/03/27 01:41:32;;;;;;;0.00;0.00;;;6.90;99.90;;;;;;5042178;28;20072;-64
2022/03/27 01:43:59;;;;;;;0.00;0.00;;;6.80;99.90;;;;;;5041814;28;20041;-65
2022/03/27 01:46:26;;;;;;;0.00;0.00;;;6.80;99.90;;;;;;5041887;28;20052;-65
2022/03/27 01:48:51;;;;;;;0.00;0.00;;;6.70;99.90;;;;;;5041880;28;20120;-64
2022/03/27 01:51:17;;;;;;;0.00;0.00;;;6.60;99.90;;;;;;5041417;28;20706;-64
2022/03/27 01:53:42;;;;;;;0.00;0.00;;;6.50;99.90;;;;;;5042210;28;20045;-65
2022/03/27 01:56:09;;;;;;;0.00;0.00;;;6.50;99.90;;;;;;5040849;28;20052;-65
2022/03/27 01:58:39;;;;;;;0.00;0.00;;;6.40;99.90;;;;;;5042179;28;20045;-64
2022/03/27 02:01:06;;;;;;;0.00;0.00;;;6.30;99.90;;;;;;5044402;28;20060;-64
2022/03/27 02:03:31;;;;;;;0.00;0.00;;;6.20;99.90;;;;;;5050587;28;20057;-64
2022/03/27 02:05:57;;;;;;;0.00;0.00;;;6.20;99.90;;;;;;5023195;28;21593;-64
2022/03/27 02:08:23;;;;;;;0.00;0.00;;;6.10;99.90;;;;;;5041967;28;20045;-64
2022/03/27 02:10:50;;;;;;;0.00;0.00;;;6.10;99.90;;;;;;5041103;28;20037;-64
2022/03/27 02:13:22;;;;;;;0.00;0.00;;;6.10;99.90;;;;;;5041441;28;20041;-65
2022/03/27 02:15:49;;;;;;;0.00;0.00;;;6.00;99.90;;;;;;5041528;28;20687;-64
2022/03/27 02:18:16;;;;;;;0.00;0.00;;;6.00;99.90;;;;;;5041535;28;20052;-65
2022/03/27 02:20:43;;;;;;;0.00;0.00;;;6.10;99.90;;;;;;5040657;28;20098;-64
2022/03/27 02:23:09;;;;;;;0.00;0.00;;;6.00;99.90;;;;;;5024102;28;20394;-64
2022/03/27 02:25:35;;;;;;;0.00;0.00;;;6.10;99.90;;;;;;5041321;28;20033;-61
2022/03/27 02:28:00;;;;;;;0.00;0.00;;;5.90;99.90;;;;;;5041721;28;20029;-64
2022/03/27 02:30:26;;;;;;;0.00;0.00;;;5.90;99.90;;;;;;5041428;28;20128;-64
2022/03/27 02:32:52;;;;;;;0.00;0.00;;;5.90;99.90;;;;;;5041225;28;20400;-64
2022/03/27 02:35:18;;;;;;;0.00;0.00;;;5.90;99.90;;;;;;5041629;28;20045;-64
2022/03/27 02:37:44;;;;;;;0.00;0.00;;;6.00;99.90;;;;;;5040698;28;20057;-65
2022/03/27 02:40:10;;;;;;;0.00;0.00;;;6.00;99.90;;;;;;5041145;28;20047;-65
2022/03/27 02:42:35;;;;;;;0.00;0.00;;;6.00;99.90;;;;;;5023448;28;20053;-65
2022/03/27 02:45:01;;;;;;;0.00;0.00;;;6.10;99.90;;;;;;5041701;28;20048;-64
2022/03/27 02:47:27;;;;;;;0.00;0.00;;;6.10;99.90;;;;;;5041178;28;20040;-64
2022/03/27 02:49:52;;;;;;;0.00;0.00;;;6.20;99.90;;;;;;5041102;28;20041;-64
2022/03/27 02:52:18;;;;;;;0.00;0.00;;;6.30;99.90;;;;;;5041646;28;20117;-65
2022/03/27 02:54:44;;;;;;;0.00;0.00;;;6.30;99.90;;;;;;5040596;28;20545;-64
2022/03/27 02:57:10;;;;;;;0.00;0.00;;;6.30;99.90;;;;;;5041025;28;20048;-64
2022/03/27 02:59:36;;;;;;;0.00;0.00;;;6.30;99.90;;;;;;5023584;28;20094;-65
2022/03/27 03:02:04;;;;;;;0.00;0.00;;;6.30;99.90;;;;;;5036163;28;20649;-65
2022/03/27 03:04:34;;;;;;;0.00;0.00;;;6.30;99.90;;;;;;5041565;28;20044;-65
2022/03/27 03:07:01;;;;;;;0.00;0.00;;;6.40;99.90;;;;;;5027082;28;20511;-65
2022/03/27 03:09:26;;;;;;;0.00;0.00;;;6.40;99.90;;;;;;5044450;28;20053;-64
2022/03/27 03:11:53;;;;;;;0.00;0.00;;;6.40;99.90;;;;;;5044122;28;20035;-64
2022/03/27 03:14:18;;;;;;;0.00;0.00;;;6.40;99.90;;;;;;5044604;28;20051;-64
2022/03/27 03:16:46;;;;;;;0.00;0.00;;;6.40;99.90;;;;;;5044378;28;20041;-64
2022/03/27 03:19:12;;;;;;;0.00;0.00;;;6.40;99.90;;;;;;5045131;28;20045;-64
2022/03/27 03:21:37;;;;;;;0.00;0.00;;;6.30;99.90;;;;;;5043947;28;20068;-64
2022/03/27 03:24:03;;;;;;;0.00;0.00;;;6.40;99.90;;;;;;5043921;28;20047;-64
2022/03/27 03:26:30;;;;;;;0.00;0.00;;;6.40;99.90;;;;;;5044818;28;20102;-65
2022/03/27 03:28:55;;;;;;;0.00;0.00;;;6.40;99.90;;;;;;5026347;28;20057;-64
2022/03/27 03:31:21;;;;;;;0.00;0.00;;;6.50;99.90;;;;;;5043939;28;20037;-64
2022/03/27 03:33:46;;;;;;;0.00;0.00;;;6.50;99.90;;;;;;5026590;28;20515;-65
2022/03/27 03:36:12;;;;;;;0.00;0.00;;;6.50;99.90;;;;;;5044453;28;20041;-65
2022/03/27 03:38:37;;;;;;;0.00;0.00;;;6.50;99.90;;;;;;5043783;28;20511;-64
2022/03/27 03:41:03;;;;;;;0.00;0.00;;;6.40;99.90;;;;;;5044265;28;20407;-64
2022/03/27 03:43:30;;;;;;;0.00;0.00;;;6.40;99.90;;;;;;5044122;28;20590;-64
2022/03/27 03:45:56;;;;;;;0.00;0.00;;;6.40;99.90;;;;;;5026268;28;20549;-64
2022/03/27 03:48:21;;;;;;;0.00;0.00;;;6.40;99.90;;;;;;5026036;28;20088;-65
2022/03/27 03:50:47;;;;;;;0.00;0.00;;;6.30;99.90;;;;;;5043738;28;20099;-64
2022/03/27 03:53:13;;;;;;;0.00;0.00;;;6.20;99.90;;;;;;5044179;28;20045;-65
2022/03/27 03:55:38;;;;;;;0.00;0.00;;;6.10;99.90;;;;;;5043254;28;20059;-65
2022/03/27 03:58:04;;;;;;;0.00;0.00;;;6.10;99.90;;;;;;5043713;28;20049;-64
2022/03/27 04:00:31;;;;;;;0.00;0.00;;;6.10;99.90;;;;;;5044143;28;20045;-65
2022/03/27 04:02:57;;;;;;;0.00;0.00;;;6.10;99.90;;;;;;5034717;28;20056;-64
2022/03/27 04:05:23;;;;;;;0.00;0.00;;;6.00;99.90;;;;;;5063212;28;20094;-64
2022/03/27 04:07:48;;;;;;;0.00;0.00;;;6.00;99.90;;;;;;5063155;28;20198;-65
2022/03/27 04:10:17;;;;;;;0.00;0.00;;;6.00;99.90;;;;;;5063283;28;20052;-65
2022/03/27 04:12:43;;;;;;;0.00;0.00;;;6.10;99.90;;;;;;5063538;28;20047;-64
2022/03/27 04:15:09;;;;;;;0.00;0.00;;;6.10;99.90;;;;;;5062671;28;20044;-65
2022/03/27 04:17:43;;;;;;;0.00;0.00;;;6.20;99.90;;;;;;5063769;28;20403;-64
2022/03/27 04:20:09;;;;;;;0.00;0.00;;;6.10;99.90;;;;;;5045647;28;20110;-65
2022/03/27 04:22:35;;;;;;;0.00;0.00;;;6.20;99.90;;;;;;5063143;28;20079;-64
2022/03/27 04:25:00;;;;;;;0.00;0.00;;;6.20;99.90;;;;;;5062828;28;20495;-65
2022/03/27 04:27:26;;;;;;;0.00;0.00;;;6.20;99.90;;;;;;5063139;28;20127;-64
2022/03/27 04:29:52;;;;;;;0.00;0.00;;;6.20;99.90;;;;;;5063422;28;20041;-64
2022/03/27 04:32:17;;;;;;;0.00;0.00;;;6.30;99.90;;;;;;5028364;28;20052;-64
2022/03/27 04:34:43;;;;;;;0.00;0.00;;;6.20;99.90;;;;;;5063098;28;20036;-63
2022/03/27 04:37:09;;;;;;;0.00;0.00;;;6.20;99.90;;;;;;5063356;28;20507;-65
2022/03/27 04:39:34;;;;;;;0.00;0.00;;;6.30;99.90;;;;;;5044460;28;20120;-64
2022/03/27 04:42:00;;;;;;;0.00;0.00;;;6.90;99.90;;;;;;5063031;28;20032;-64
2022/03/27 04:44:25;;;;;;;0.00;0.00;;;6.30;99.90;;;;;;5063369;28;20473;-65
2022/03/27 04:46:51;;;;;;;0.00;0.00;;;6.30;99.90;;;;;;5062514;28;20063;-65
2022/03/27 04:49:17;;;;;;;0.00;0.00;;;6.30;99.90;;;;;;5062870;28;20044;-64
2022/03/27 04:51:43;;;;;;;0.00;0.00;;;6.40;99.90;;;;;;5062815;28;20105;-64
2022/03/27 04:54:08;;;;;;;0.00;0.00;;;6.30;99.90;;;;;;5044528;28;20101;-65
2022/03/27 04:56:35;;;;;;;0.00;0.00;;;6.30;99.90;;;;;;5063012;28;20044;-64
2022/03/27 04:59:00;;;;;;;0.00;0.00;;;6.30;99.90;;;;;;5062761;28;20135;-65
2022/03/27 05:01:26;;;;;;;0.00;0.00;;;6.20;99.90;;;;;;5056738;28;20175;-64
2022/03/27 05:03:52;;;;;;;0.00;0.00;;;6.20;99.90;;;;;;5051148;28;20128;-64
2022/03/27 05:06:18;;;;;;;0.00;0.00;;;6.20;99.90;;;;;;5024403;28;20564;-65
2022/03/27 05:08:44;;;;;;;0.00;0.00;;;6.20;99.90;;;;;;5041356;28;20512;-64
2022/03/27 05:11:11;;;;;;;0.00;0.00;;;6.20;99.90;;;;;;5008731;28;20057;-64
2022/03/27 05:13:36;;;;;;;0.00;0.00;;;6.20;99.90;;;;;;5042432;28;20618;-65
2022/03/27 05:16:02;;;;;;;0.00;0.00;;;6.20;99.90;;;;;;5042056;28;20128;-65
2022/03/27 05:18:28;;;;;;;0.00;0.00;;;6.20;99.90;;;;;;5042567;28;20049;-65
2022/03/27 05:20:54;;;;;;;0.00;0.00;;;6.20;99.90;;;;;;5042355;28;20041;-65
2022/03/27 05:23:19;;;;;;;0.00;0.00;;;6.20;99.90;;;;;;5042148;28;20042;-65
2022/03/27 05:25:45;;;;;;;0.00;0.00;;;7.20;99.90;;;;;;5040352;28;20146;-64
2022/03/27 05:28:14;;;;;;;0.00;0.00;;;6.10;99.90;;;;;;5024032;28;20523;-64
2022/03/27 05:30:39;;;;;;;0.00;0.00;;;7.20;99.90;;;;;;5042163;28;20487;-64
2022/03/27 05:33:06;;;;;;;0.00;0.00;;;6.10;99.90;;;;;;5041598;28;20037;-65
2022/03/27 05:35:32;;;;;;;0.00;0.00;;;6.10;99.90;;;;;;5042684;28;20045;-64
2022/03/27 05:38:01;;;;;;;0.00;0.00;;;7.10;99.90;;;;;;5041883;28;20095;-64
2022/03/27 05:40:27;;;;;;;0.00;0.00;;;6.20;99.90;;;;;;5041105;28;20049;-64
2022/03/27 05:42:53;;;;;;;0.00;0.00;;;6.20;99.90;;;;;;5041749;28;20178;-67
2022/03/27 05:45:19;;;;;;;0.00;0.00;;;6.30;99.90;;;;;;5042058;28;20493;-66
2022/03/27 05:47:45;;;;;;;0.00;0.00;;;6.30;99.90;;;;;;5041826;28;20472;-66
2022/03/27 05:50:13;;;;;;;0.00;0.00;;;6.30;99.90;;;;;;5041636;28;20124;-67
2022/03/27 05:52:41;;;;;;;0.00;0.00;;;6.30;99.90;;;;;;5041821;28;20045;-64
2022/03/27 05:55:07;;;;;;;0.00;0.00;;;6.30;99.90;;;;;;5041274;28;20533;-68
2022/03/27 05:57:33;;;;;;;0.00;0.00;;;6.30;99.90;;;;;;5042289;28;20095;-66
2022/03/27 05:59:58;;;;;;;0.00;0.00;;;6.30;99.90;;;;;;5041270;28;20747;-66
2022/03/27 06:02:24;;;;;;;0.00;0.00;;;6.40;99.90;;;;;;5052099;28;20048;-66
2022/03/27 06:04:51;;;;;;;0.00;0.00;;;6.40;99.90;;;;;;5042447;28;20040;-66
2022/03/27 06:07:16;;;;;;;0.00;0.00;;;6.50;99.90;;;;;;5041271;28;20400;-66
2022/03/27 06:09:42;;;;;;;0.00;0.00;;;6.50;99.90;;;;;;5040630;28;20136;-66
2022/03/27 06:12:08;;;;;;;0.00;0.00;;;6.50;99.90;;;;;;5041953;28;20033;-67
2022/03/27 06:14:34;;;;;;;0.00;0.00;;;6.50;99.90;;;;;;5042154;28;20492;-66
2022/03/27 06:17:00;;;;;;;0.00;0.00;;;6.50;99.90;;;;;;5041225;28;20041;-66
2022/03/27 06:19:26;;;;;;;0.00;0.00;;;6.50;99.90;;;;;;5040889;28;20048;-66
2022/03/27 06:21:52;;;;;;;0.00;0.00;;;6.40;99.90;;;;;;5041187;28;20036;-67
2022/03/27 06:24:18;;;;;;;0.00;0.00;;;6.40;99.90;;;;;;5040660;28;20049;-68
2022/03/27 06:26:43;;;;;;;0.00;0.00;;;6.50;99.90;;;;;;5041300;28;20203;-65
2022/03/27 06:29:09;;;;;;;0.00;0.00;;;6.60;99.90;;;;;;5041508;28;20041;-66
2022/03/27 06:31:38;;;;;;;0.00;0.00;;;6.60;99.90;;;;;;5042001;28;20128;-66
2022/03/27 06:34:05;;;;;;;0.00;0.00;;;6.60;99.90;;;;;;5041371;28;20503;-66
2022/03/27 06:36:32;;;;;;;0.00;0.00;;;6.70;99.90;;;;;;5040655;28;20048;-66
2022/03/27 06:38:57;;;;;;;0.00;0.00;;;6.70;99.90;;;;;;5025626;28;20053;-66
2022/03/27 06:41:23;;;;;;;0.00;0.00;;;7.10;99.90;;;;;;5045419;28;20041;-67
2022/03/27 06:43:48;;;;;;;0.00;0.00;;;6.90;99.90;;;;;;5044846;28;20525;-66
2022/03/27 06:46:16;;;;;;;0.00;0.00;;;7.00;99.90;;;;;;5045184;28;20048;-66
2022/03/27 06:48:47;;;;;;;0.00;0.00;;;7.00;99.90;;;;;;5045059;28;20041;-67
2022/03/27 06:51:13;;;;;;;0.00;0.00;;;7.20;99.90;;;;;;5044730;28;20140;-66
2022/03/27 06:53:39;;;;;;;0.00;0.00;;;8.20;99.90;;;;;;5026655;28;20029;-66
2022/03/27 06:56:05;;;;;;;0.00;0.00;;;7.40;99.90;;;;;;5045195;28;20044;-66
2022/03/27 06:58:31;;;;;;;0.00;0.00;;;7.40;99.90;;;;;;5027156;28;20048;-66
2022/03/27 07:03:41;;;;;;;0.00;0.00;;;7.60;99.90;;;;;;5053480;28;20060;-66
2022/03/27 07:06:07;;;;;;;0.00;0.00;;;7.60;99.90;;;;;;5026035;28;20399;-66
2022/03/27 07:08:33;;;;;;;0.00;0.00;;;7.60;99.90;;;;;;5044715;28;20140;-66
2022/03/27 07:10:59;;;;;;;0.00;0.00;;;7.60;99.90;;;;;;5044743;28;20518;-66
2022/03/27 07:13:25;;;;;;;0.00;0.00;;;7.70;99.90;;;;;;5044920;28;20804;-66
2022/03/27 07:15:51;;;;;;;0.00;0.00;;;7.70;99.90;;;;;;5043853;28;20136;-66
2022/03/27 07:18:17;;;;;;;0.00;0.00;;;7.60;99.90;;;;;;5027194;28;20124;-66
2022/03/27 07:20:44;;;;;;;0.00;0.00;;;7.70;99.90;;;;;;5044171;28;20049;-66
2022/03/27 07:23:13;;;;;;;0.00;0.00;;;7.70;99.90;;;;;;5043508;28;20044;-66
2022/03/27 07:25:42;;;;;;;0.00;0.00;;;7.80;99.90;;;;;;5044306;28;20045;-63
2022/03/27 07:28:09;;;;;;;0.00;0.00;;;7.90;99.90;;;;;;5044609;28;20045;-66
2022/03/27 07:30:36;;;;;;;0.00;0.00;;;7.90;99.90;;;;;;5045020;28;20468;-66
2022/03/27 07:33:02;;;;;;;0.00;0.00;;;8.30;99.90;;;;;;5044356;28;20513;-65
2022/03/27 07:35:30;;;;;;;0.00;0.00;;;8.40;99.90;;;;;;5044717;28;20037;-66
2022/03/27 07:37:57;;;;;;;0.00;0.00;;;8.20;99.90;;;;;;5044223;28;20581;-65
2022/03/27 07:40:22;;;;;;;0.00;0.00;;;8.30;99.90;;;;;;5043199;28;20084;-66
2022/03/27 07:42:50;;;;;;;0.00;0.00;;;8.60;99.90;;;;;;5025793;28;20084;-66
2022/03/27 07:45:21;;;;;;;0.00;0.00;;;8.40;99.90;;;;;;5044091;28;20041;-65
2022/03/27 07:47:48;;;;;;;0.00;0.00;;;8.50;99.90;;;;;;5043441;28;20135;-67
2022/03/27 07:50:14;;;;;;;0.00;0.00;;;8.70;99.90;;;;;;5043554;28;20476;-65
2022/03/27 07:52:40;;;;;;;0.00;0.00;;;8.50;99.90;;;;;;5043445;28;20492;-66
2022/03/27 07:55:08;;;;;;;0.00;0.00;;;8.50;99.90;;;;;;5043274;28;20040;-66
2022/03/27 07:57:34;;;;;;;0.00;0.00;;;8.60;99.90;;;;;;5043649;28;20175;-66
2022/03/27 07:59:59;;;;;;;0.00;0.00;;;9.90;99.90;;;;;;5044003;28;20120;-66
2022/03/27 08:02:25;;;;;;;0.00;0.00;;;9.10;99.90;;;;;;5032869;28;20053;-66
2022/03/27 08:04:51;;;;;;;0.00;0.00;;;8.90;99.90;;;;;;5024692;28;20071;-66
2022/03/27 08:07:17;;;;;;;0.00;0.00;;;9.10;99.90;;;;;;5043527;28;20096;-66
2022/03/27 08:09:42;;;;;;;0.00;0.00;;;8.80;99.90;;;;;;5042519;28;20053;-66
2022/03/27 08:12:09;;;;;;;0.00;0.00;;;10.60;99.90;;;;;;5043753;28;20124;-66
2022/03/27 08:14:39;;;;;;;0.00;0.00;;;9.60;99.90;;;;;;5042821;28;20045;-63
2022/03/27 08:17:06;;;;;;;0.00;0.00;;;9.70;99.90;;;;;;5026014;28;20393;-61
2022/03/27 08:19:32;;;;;;;0.00;0.00;;;9.80;99.90;;;;;;5044070;28;20071;-64
2022/03/27 08:22:00;;;;;;;0.00;0.00;;;9.80;99.90;;;;;;5024626;28;20498;-63
2022/03/27 08:24:25;;;;;;;0.00;0.00;;;10.00;99.90;;;;;;5042550;28;20049;-62
2022/03/27 08:26:58;;;;;;;0.00;0.00;;;9.90;99.90;;;;;;5042813;28;20047;-64
2022/03/27 08:29:32;;;;;;;0.00;0.00;;;9.90;99.90;;;;;;5042957;28;20057;-64
2022/03/27 08:32:00;;;;;;;0.00;0.00;;;9.70;99.90;;;;;;5024943;28;20131;-63
2022/03/27 08:34:28;;;;;;;0.00;0.00;;;9.60;99.90;;;;;;5042034;28;20420;-64
2022/03/27 08:36:55;;;;;;;0.00;0.00;;;9.40;99.90;;;;;;5041883;28;20036;-64
2022/03/27 08:39:21;;;;;;;0.00;0.00;;;9.60;99.90;;;;;;5042540;28;20056;-64
2022/03/27 08:41:49;;;;;;;0.00;0.00;;;9.50;99.90;;;;;;5044802;28;20053;-64
2022/03/27 08:44:20;;;;;;;0.00;0.00;;;9.50;99.90;;;;;;5048476;28;20040;-65
2022/03/27 08:46:47;;;;;;;0.00;0.00;;;9.50;99.90;;;;;;5052409;28;20059;-64
2022/03/27 08:49:39;;;;;;;0.00;0.00;;;9.60;99.90;;;;;;5052522;28;20107;-64
2022/03/27 08:52:17;;;;;;;0.00;0.00;;;9.60;99.90;;;;;;5045701;28;20446;-64
2022/03/27 08:54:43;;;;;;;0.00;0.00;;;9.60;99.90;;;;;;5055700;28;20040;-61
2022/03/27 08:57:29;;;;;;;0.00;0.00;;;9.80;99.90;;;;;;5062788;28;20042;-64
2022/03/27 08:59:57;;;;;;;0.00;0.00;;;9.90;99.90;;;;;;5044162;28;20044;-64
2022/03/27 09:02:26;;;;;;;0.00;0.00;;;10.00;99.90;;;;;;5054907;28;20048;-63
2022/03/27 09:04:53;;;;;;;0.00;0.00;;;9.90;99.90;;;;;;5042700;28;20124;-64
2022/03/27 09:07:25;;;;;;;0.00;0.00;;;10.00;99.90;;;;;;5042397;28;20365;-63
2022/03/27 09:09:52;;;;;;;0.00;0.00;;;10.10;99.90;;;;;;5041216;28;20049;-64
2022/03/27 09:12:19;;;;;;;0.00;0.00;;;10.50;99.90;;;;;;5032073;28;20068;-64
2022/03/27 09:14:45;;;;;;;0.00;0.00;;;11.20;99.90;;;;;;5034125;28;20044;-63
2022/03/27 09:17:11;;;;;;;0.00;0.00;;;11.80;99.90;;;;;;5052270;28;20131;-64
2022/03/27 09:19:39;;;;;;;0.00;0.00;;;12.50;99.90;;;;;;5033097;28;20453;-63
2022/03/27 09:22:32;;;;;;;0.00;0.00;;;12.70;99.90;;;;;;5052586;28;20532;-61
2022/03/27 09:25:05;;;;;;;0.00;0.00;;;13.40;99.90;;;;;;5047845;28;20051;-63
2022/03/27 09:27:36;;;;;;;0.00;0.00;;;13.90;99.90;;;;;;5059054;28;20040;-64
2022/03/27 09:30:07;;;;;;;0.00;0.00;;;14.00;99.90;;;;;;5062413;28;20087;-64
2022/03/27 09:32:38;;;;;;;0.00;0.00;;;13.90;99.90;;;;;;5061471;28;20071;-65
2022/03/27 09:35:13;;;;;;;0.00;0.00;;;14.90;99.90;;;;;;5062112;28;20094;-64
2022/03/27 09:37:46;;;;;;;0.47;0.47;;;14.90;99.90;;;;;;5061485;28;20079;-64
2022/03/27 09:40:13;;;;;;;0.00;0.00;;;15.10;99.90;;;;;;5061557;28;20090;-65
2022/03/27 09:42:40;;;;;;;0.00;0.00;;;15.20;99.90;;;;;;5061982;28;20424;-65
2022/03/27 09:45:16;;;;;;;0.00;0.00;;;15.50;99.90;;;;;;5061823;28;20067;-65
2022/03/27 09:47:47;;;;;;;0.00;0.00;;;15.40;99.90;;;;;;5043190;28;20041;-65
2022/03/27 09:50:35;;;;;;;0.00;0.00;;;15.30;99.90;;;;;;5062215;28;20426;-64
2022/03/27 09:53:26;;;;;;;0.00;0.00;;;15.60;99.90;;;;;;5060804;28;20037;-63
2022/03/27 09:55:53;;;;;;;0.00;0.00;;;15.80;99.90;;;;;;5053738;28;20451;-64
2022/03/27 09:58:46;;;;;;;0.00;0.00;;;15.90;99.90;;;;;;5041545;28;20532;-64
2022/03/27 10:01:17;;;;;;;0.00;0.00;;;16.10;99.90;;;;;;5044255;28;20056;-64
2022/03/27 10:04:02;;;;;;;0.00;0.00;;;16.30;99.90;;;;;;5031790;28;20482;-64
2022/03/27 10:06:28;;;;;;;0.00;0.00;;;15.90;99.90;;;;;;5046768;28;20066;-64
2022/03/27 10:08:54;;;;;;;0.00;0.00;;;16.00;99.90;;;;;;5050535;28;20040;-65
2022/03/27 10:11:23;;;;;;;0.00;0.00;;;16.10;99.90;;;;;;5050739;28;20048;-63
2022/03/27 10:13:53;;;;;;;0.00;0.00;;;16.20;99.90;;;;;;5053562;28;20423;-63
2022/03/27 10:16:26;;;;;;;0.00;0.00;;;16.20;99.90;;;;;;5046791;28;20047;-64
2022/03/27 10:18:55;;;;;;;0.00;0.00;;;16.50;99.90;;;;;;5045382;28;20084;-63
2022/03/27 10:21:24;;;;;;;0.00;0.00;;;16.40;99.90;;;;;;5045772;28;20075;-63
2022/03/27 10:23:56;;;;;;;0.35;0.35;;;16.30;99.90;;;;;;5026161;28;20041;-64
2022/03/27 10:26:22;;;;;;;0.00;0.00;;;16.10;99.90;;;;;;5045706;28;20090;-63
2022/03/27 10:28:50;;;;;;;0.00;0.00;;;16.10;99.90;;;;;;5027243;28;20044;-63
2022/03/27 10:31:18;;;;;;;0.00;0.00;;;15.90;99.90;;;;;;5045573;28;20049;-63
2022/03/27 10:33:44;;;;;;;0.00;0.00;;;15.80;99.90;;;;;;5044979;28;20048;-63
2022/03/27 10:36:21;;;;;;;0.00;0.00;;;16.10;99.90;;;;;;5027575;28;20415;-63
2022/03/27 10:39:15;;;;;;;0.00;0.00;;;16.40;99.90;;;;;;5044471;28;20055;-63
2022/03/27 10:41:54;;;;;;;0.00;0.00;;;16.00;99.90;;;;;;5045412;28;20103;-63
2022/03/27 10:44:38;;;;;;;0.00;0.00;;;16.00;99.90;;;;;;5044633;28;20053;-63
2022/03/27 10:47:18;;;;;;;0.00;0.00;;;16.20;99.90;;;;;;5033051;28;20102;-63
2022/03/27 10:50:02;;;;;;;0.00;0.00;;;16.30;99.90;;;;;;5057170;28;20123;-63
2022/03/27 10:52:30;;;;;;;0.00;0.00;;;16.70;99.90;;;;;;5058981;28;20048;-63
2022/03/27 10:55:07;;;;;;;0.00;0.00;;;16.90;99.90;;;;;;5063507;28;20790;-63
2022/03/27 10:57:34;;;;;;;0.00;0.00;;;17.10;99.90;;;;;;5065482;28;20127;-64
2022/03/27 11:00:01;;;;;;;0.30;0.10;;;17.30;99.90;;;;;;5065150;28;20078;-63
2022/03/27 11:02:46;;;;;;;0.00;0.00;;;17.10;99.90;;;;;;5058747;28;20047;-64
2022/03/27 11:05:35;;;;;;;0.00;0.00;;;17.20;99.90;;;;;;5054200;28;20089;-63
2022/03/27 11:08:16;;;;;;;0.00;0.00;;;17.40;99.90;;;;;;5044116;28;20057;-67
2022/03/27 11:10:49;;;;;;;0.00;0.00;;;17.50;99.90;;;;;;5026665;28;20389;-62
2022/03/27 11:13:28;;;;;;;0.00;0.00;;;17.60;99.90;;;;;;5030750;28;20386;-63
2022/03/27 11:16:02;;;;;;;0.00;0.00;;;17.80;99.90;;;;;;5061623;28;20477;-64
2022/03/27 11:18:39;;;;;;;0.00;0.00;;;17.90;99.90;;;;;;5049815;28;20045;-64
2022/03/27 11:21:09;;;;;;;0.00;0.00;;;18.10;99.90;;;;;;5053670;28;20041;-62
2022/03/27 11:23:41;;;;;;;0.00;0.00;;;18.30;99.90;;;;;;5057734;28;20044;-62
2022/03/27 11:26:29;;;;;;;0.00;0.00;;;18.40;99.90;;;;;;5060593;28;20384;-64
2022/03/27 11:29:04;;;;;;;0.00;0.00;;;18.30;99.90;;;;;;5054465;28;20048;-64
2022/03/27 11:31:35;;;;;;;0.00;0.00;;;18.20;99.90;;;;;;5028617;28;20052;-64
2022/03/27 11:34:14;;;;;;;0.00;0.00;;;18.10;99.90;;;;;;5058369;28;20398;-64
2022/03/27 11:36:41;;;;;;;0.00;0.00;;;18.20;99.90;;;;;;5063294;28;20056;-64
2022/03/27 11:39:09;;;;;;;0.00;0.00;;;18.30;99.90;;;;;;5063343;28;20044;-64
2022/03/27 11:41:47;;;;;;;0.00;0.00;;;18.50;99.90;;;;;;5063400;28;20036;-62
2022/03/27 11:47:19;;;;;;;0.00;0.00;;;18.50;99.90;;;;;;5031851;28;20048;-63
2022/03/27 11:49:45;;;;;;;0.00;0.00;;;18.40;99.90;;;;;;5038082;28;20052;-63
2022/03/27 11:52:16;;;;;;;0.00;0.00;;;18.60;99.90;;;;;;5058703;28;20042;-63
2022/03/27 11:54:42;;;;;;;0.00;0.00;;;18.50;99.90;;;;;;5061582;28;20045;-63
2022/03/27 11:57:09;;;;;;;0.00;0.00;;;18.50;99.90;;;;;;5062513;28;20033;-63
2022/03/27 11:59:47;;;;;;;0.00;0.00;;;18.50;99.90;;;;;;5063800;28;20453;-64
2022/03/27 12:02:13;;;;;;;0.00;0.00;;;18.40;99.90;;;;;;5052966;28;20041;-63
2022/03/27 12:04:56;;;;;;;0.00;0.00;;;18.30;99.90;;;;;;5027662;28;20045;-63
2022/03/27 12:07:23;;;;;;;0.00;0.00;;;18.30;99.90;;;;;;5051507;28;20060;-63
2022/03/27 12:09:56;;;;;;;0.00;0.00;;;18.30;99.90;;;;;;5062785;28;20041;-62
2022/03/27 12:12:22;;;;;;;0.00;0.00;;;18.40;99.90;;;;;;5063421;28;20040;-63
2022/03/27 12:14:51;;;;;;;0.00;0.00;;;18.20;99.90;;;;;;5063092;28;20037;-62
2022/03/27 12:17:18;;;;;;;0.00;0.00;;;18.10;99.90;;;;;;5063321;28;20056;-63
2022/03/27 12:20:00;;;;;;;0.00;0.00;;;18.20;99.90;;;;;;5062389;28;20045;-63
2022/03/27 12:22:46;;;;;;;0.00;0.00;;;18.20;99.90;;;;;;5062318;28;20078;-63
2022/03/27 12:25:15;;;;;;;0.00;0.00;;;18.40;99.90;;;;;;5061164;28;20617;-63
2022/03/27 12:30:35;;;;;;;0.00;0.00;;;18.50;99.90;;;;;;5062333;28;20057;-63
2022/03/27 12:33:02;;;;;;;0.00;0.00;;;18.30;99.90;;;;;;5044932;28;20645;-62
2022/03/27 12:35:29;;;;;;;0.00;0.00;;;18.30;99.90;;;;;;5061966;28;20055;-63
2022/03/27 12:37:56;;;;;;;0.00;0.00;;;18.40;99.90;;;;;;5061421;28;20055;-62
2022/03/27 12:40:24;;;;;;;0.00;0.00;;;18.30;99.90;;;;;;5062842;28;20041;-62
2022/03/27 12:42:54;;;;;;;0.00;0.00;;;18.00;99.90;;;;;;5061627;28;20754;-62
2022/03/27 12:45:26;;;;;;;0.00;0.00;;;18.00;99.90;;;;;;5042120;28;20056;-62
2022/03/27 12:48:13;;;;;;;0.00;0.00;;;18.10;99.90;;;;;;5048342;28;20151;-62
2022/03/27 12:50:41;;;;;;;0.00;0.00;;;18.10;99.90;;;;;;5062008;28;20533;-62
2022/03/27 12:53:28;;;;;;;0.00;0.00;;;18.10;99.90;;;;;;5061709;28;20052;-62
2022/03/27 12:56:04;;;;;;;0.00;0.00;;;18.20;99.90;;;;;;5043879;28;20439;-62
2022/03/27 12:58:35;;;;;;;0.00;0.00;;;18.30;99.90;;;;;;5043261;28;20106;-62
2022/03/27 13:01:18;;;;;;;0.00;0.00;;;18.30;99.90;;;;;;5045308;28;20044;-62
2022/03/27 13:04:10;;;;;;;0.00;0.00;;;18.30;99.90;;;;;;5050514;28;20503;-62
2022/03/27 13:06:43;;;;;;;0.00;0.00;;;18.10;99.90;;;;;;5041901;28;20124;-61
2022/03/27 13:09:09;;;;;;;0.00;0.00;;;18.10;99.90;;;;;;5041839;28;20057;-61
2022/03/27 13:11:44;;;;;;;0.00;0.00;;;18.00;99.90;;;;;;5042070;28;20052;-62